createdAt,value
2023-02-06T00:03:20.535Z,12.33
2023-02-06T00:08:22.991Z,11.93
2023-02-06T00:13:25.018Z,13.47
2023-02-06T00:18:27.291Z,15.80
2023-02-06T00:23:29.247Z,13.07
2023-02-06T00:28:31.402Z,15.90
2023-02-06T00:33:33.638Z,13.97
2023-02-06T00:38:38.530Z,15.63
2023-02-06T00:43:42.031Z,16.10
2023-02-06T00:48:44.135Z,17.07
2023-02-06T00:53:46.608Z,17.40
2023-02-06T00:58:48.876Z,16.47
2023-02-06T01:03:51.101Z,18.53
2023-02-06T01:08:53.360Z,14.93
2023-02-06T01:13:55.630Z,18.00
2023-02-06T01:18:57.828Z,17.10
2023-02-06T01:23:59.880Z,18.53
2023-02-06T01:29:02.918Z,18.67
2023-02-06T01:34:05.938Z,17.20
2023-02-06T01:39:08.371Z,16.47
2023-02-06T01:44:19.857Z,21.37
2023-02-06T01:49:34.534Z,19.87
2023-02-06T01:54:36.875Z,16.77
2023-02-06T01:59:44.201Z,22.13
2023-02-06T02:04:46.927Z,18.00
2023-02-06T02:09:49.282Z,20.43
2023-02-06T02:14:54.496Z,21.53
2023-02-06T02:20:24.023Z,20.70
2023-02-06T02:25:57.041Z,20.57
2023-02-06T02:31:46.863Z,20.50
2023-02-06T02:37:07.360Z,20.03
2023-02-06T02:42:28.555Z,15.20
2023-02-06T02:47:43.663Z,20.20
2023-02-06T02:52:46.701Z,20.73
2023-02-06T02:57:56.292Z,20.80
2023-02-06T03:02:59.340Z,20.23
2023-02-06T03:08:34.468Z,18.40
2023-02-06T03:13:48.843Z,19.87
2023-02-06T03:19:11.034Z,19.47
2023-02-06T03:24:31.968Z,22.13
2023-02-06T03:29:37.423Z,23.97
2023-02-06T03:35:08.445Z,20.63
2023-02-06T03:40:11.589Z,24.40
2023-02-06T03:45:26.470Z,21.07
2023-02-06T03:50:29.150Z,21.37
2023-02-06T03:55:31.476Z,16.27
2023-02-06T04:00:35.794Z,21.33
2023-02-06T04:05:39.271Z,22.30
2023-02-06T04:10:41.291Z,20.17
2023-02-06T04:15:43.501Z,18.20
2023-02-06T04:20:45.785Z,23.87
2023-02-06T04:25:48.338Z,20.37
2023-02-06T04:30:50.567Z,20.50
2023-02-06T04:35:52.667Z,21.00
2023-02-06T04:40:54.651Z,17.47
2023-02-06T04:45:56.693Z,19.83
2023-02-06T04:50:58.864Z,18.27
2023-02-06T04:56:07.327Z,19.50
2023-02-06T05:01:09.484Z,18.37
2023-02-06T05:06:11.919Z,15.70
2023-02-06T05:11:13.914Z,15.40
2023-02-06T05:16:17.691Z,17.40
2023-02-06T05:21:20.010Z,15.20
2023-02-06T05:26:22.109Z,15.93
2023-02-06T05:31:24.377Z,16.20
2023-02-06T05:36:26.514Z,16.63
2023-02-06T05:41:28.518Z,16.00
2023-02-06T05:46:30.776Z,17.27
2023-02-06T05:51:32.803Z,14.00
2023-02-06T05:56:34.827Z,17.57
2023-02-06T06:01:36.978Z,14.07
2023-02-06T06:06:39.042Z,14.60
2023-02-06T06:11:41.076Z,14.13
2023-02-06T06:16:43.230Z,13.27
2023-02-06T06:21:45.482Z,14.13
2023-02-06T06:26:47.959Z,14.80
2023-02-06T06:31:50.328Z,15.30
2023-02-06T06:36:52.461Z,13.23
2023-02-06T06:41:54.607Z,15.90
2023-02-06T06:46:56.746Z,13.70
2023-02-06T06:51:58.968Z,12.93
2023-02-06T06:57:00.998Z,13.17
2023-02-06T07:02:03.218Z,14.90
2023-02-06T07:07:05.374Z,15.20
2023-02-06T07:12:07.702Z,14.37
2023-02-06T07:17:09.735Z,13.93
2023-02-06T07:22:11.798Z,11.57
2023-02-06T07:27:14.042Z,11.50
2023-02-06T07:32:16.664Z,12.53
2023-02-06T07:37:18.943Z,11.60
2023-02-06T07:42:20.954Z,12.03
2023-02-06T07:47:30.079Z,12.00
2023-02-06T07:52:32.240Z,8.73
2023-02-06T07:57:34.298Z,10.97
2023-02-06T08:02:36.317Z,11.33
2023-02-06T08:07:38.363Z,11.20
2023-02-06T08:12:40.454Z,8.20
2023-02-06T08:17:42.890Z,10.73
2023-02-06T08:22:44.982Z,9.80
2023-02-06T08:27:47.533Z,9.53
2023-02-06T08:32:50.133Z,12.30
2023-02-06T08:37:52.238Z,7.93
2023-02-06T08:42:56.504Z,8.20
2023-02-06T08:47:58.860Z,8.00
2023-02-06T08:53:00.892Z,9.83
2023-02-06T08:58:04.027Z,8.47
2023-02-06T09:03:06.222Z,9.80
2023-02-06T09:08:08.951Z,8.70
2023-02-06T09:13:11.217Z,7.37
2023-02-06T09:18:13.209Z,9.67
2023-02-06T09:23:19.184Z,7.37
2023-02-06T09:28:21.420Z,6.77
2023-02-06T09:33:24.176Z,6.70
2023-02-06T09:38:26.168Z,7.23
2023-02-06T09:43:32.175Z,6.50
2023-02-06T09:48:39.512Z,5.03
2023-02-06T09:54:12.881Z,7.00
2023-02-06T09:59:32.908Z,5.10
2023-02-06T10:05:36.798Z,5.43
2023-02-06T10:10:53.455Z,4.97
2023-02-06T10:16:07.345Z,5.53
2023-02-06T10:21:31.563Z,5.60
2023-02-06T10:26:38.928Z,3.93
2023-02-06T10:32:01.880Z,5.30
2023-02-06T10:37:29.754Z,3.43
2023-02-06T10:42:52.790Z,3.17
2023-02-06T10:48:09.599Z,3.00
2023-02-06T10:53:35.468Z,2.90
2023-02-06T10:58:46.244Z,3.03
2023-02-06T11:04:04.017Z,4.93
2023-02-06T11:09:06.386Z,3.47
2023-02-06T11:14:35.203Z,2.50
2023-02-06T11:19:46.767Z,4.53
2023-02-06T11:25:01.580Z,11.83
2023-02-06T11:30:27.485Z,4.40
2023-02-06T11:35:54.198Z,3.17
2023-02-06T11:41:01.348Z,2.90
2023-02-06T11:46:42.238Z,5.10
2023-02-06T11:52:03.730Z,3.00
2023-02-06T11:57:21.105Z,4.73
2023-02-06T12:02:31.628Z,4.63
2023-02-06T12:08:10.704Z,5.57
2023-02-06T12:13:30.946Z,4.27
2023-02-06T12:18:42.360Z,3.93
2023-02-06T12:23:52.955Z,3.37
2023-02-06T12:29:04.823Z,3.50
2023-02-06T12:34:15.556Z,4.27
2023-02-06T12:39:22.990Z,4.63
2023-02-06T12:44:57.677Z,6.60
2023-02-06T12:50:44.354Z,5.40
2023-02-06T12:56:00.873Z,3.90
2023-02-06T13:01:33.003Z,4.57
2023-02-06T13:07:05.069Z,6.60
2023-02-06T13:12:19.866Z,4.13
2023-02-06T13:17:38.865Z,4.27
2023-02-06T13:22:51.101Z,5.00
2023-02-06T13:27:55.711Z,7.40
2023-02-06T13:33:20.911Z,3.73
2023-02-06T13:38:22.868Z,3.63
2023-02-06T13:43:30.888Z,3.57
2023-02-06T13:49:15.219Z,3.77
2023-02-06T13:54:38.512Z,3.60
2023-02-06T14:00:00.795Z,2.83
2023-02-06T14:05:06.936Z,3.13
2023-02-06T14:11:00.946Z,4.00
2023-02-06T14:16:45.002Z,2.50
2023-02-06T14:22:36.750Z,2.10
2023-02-06T14:28:33.096Z,2.67
2023-02-06T14:34:00.280Z,2.23
2023-02-06T14:39:40.822Z,3.27
2023-02-06T14:44:50.692Z,3.40
2023-02-06T14:49:56.714Z,2.70
2023-02-06T14:54:59.081Z,2.60
2023-02-06T15:00:17.642Z,2.20
2023-02-06T15:05:26.551Z,3.37
2023-02-06T15:10:36.718Z,2.17
2023-02-06T15:15:39.100Z,2.53
2023-02-06T15:20:45.334Z,2.23
2023-02-06T15:26:05.672Z,3.60
2023-02-06T15:31:21.570Z,3.13
2023-02-06T15:36:38.378Z,2.33
2023-02-06T15:41:44.546Z,1.67
2023-02-06T15:46:49.296Z,4.63
2023-02-06T15:51:55.146Z,3.67
2023-02-06T15:57:17.322Z,2.40
2023-02-06T16:02:31.043Z,3.07
2023-02-06T16:07:36.178Z,3.93
2023-02-06T16:12:42.593Z,2.43
2023-02-06T16:17:44.634Z,3.33
2023-02-06T16:22:47.178Z,3.53
2023-02-06T16:27:51.435Z,2.60
2023-02-06T16:32:55.523Z,2.70
2023-02-06T16:37:57.737Z,3.97
2023-02-06T16:43:01.945Z,3.50
2023-02-06T16:48:10.072Z,2.50
2023-02-06T16:53:24.460Z,3.80
2023-02-06T16:58:30.299Z,3.07
2023-02-06T17:03:32.712Z,2.67
2023-02-06T17:08:39.230Z,2.40
2023-02-06T17:13:41.774Z,4.37
2023-02-06T17:18:44.362Z,2.57
2023-02-06T17:23:49.039Z,3.37
2023-02-06T17:28:52.192Z,3.10
2023-02-06T17:33:54.730Z,3.80
2023-02-06T17:39:00.803Z,2.23
2023-02-06T17:44:03.342Z,2.30
2023-02-06T17:49:06.090Z,2.20
2023-02-06T17:54:09.221Z,1.87
2023-02-06T17:59:11.660Z,2.03
2023-02-06T18:04:14.649Z,2.40
2023-02-06T18:09:17.515Z,3.80
2023-02-06T18:14:20.961Z,2.27
2023-02-06T18:19:25.335Z,3.00
2023-02-06T18:24:27.734Z,2.23
2023-02-06T18:29:47.321Z,2.50
2023-02-06T18:34:51.466Z,3.63
2023-02-06T18:39:55.350Z,2.40
2023-02-06T18:44:57.942Z,3.03
2023-02-06T18:50:00.784Z,2.23
2023-02-06T18:55:03.690Z,2.80
2023-02-06T19:00:08.420Z,3.13
2023-02-06T19:05:11.093Z,2.07
2023-02-06T19:10:16.226Z,2.67
2023-02-06T19:15:19.401Z,3.37
2023-02-06T19:20:21.898Z,3.40
2023-02-06T19:25:24.511Z,2.10
2023-02-06T19:30:27.166Z,2.93
2023-02-06T19:35:30.023Z,3.67
2023-02-06T19:40:33.996Z,3.33
2023-02-06T19:45:37.101Z,3.50
2023-02-06T19:50:40.735Z,3.63
2023-02-06T19:55:48.118Z,5.17
2023-02-06T20:00:50.658Z,2.70
2023-02-06T20:05:53.318Z,3.40
2023-02-06T20:10:55.800Z,3.57
2023-02-06T20:16:03.415Z,3.67
2023-02-06T20:21:06.179Z,4.37
2023-02-06T20:26:08.670Z,2.83
2023-02-06T20:31:12.068Z,3.23
2023-02-06T20:36:22.470Z,3.13
2023-02-06T20:41:29.688Z,3.50
2023-02-06T20:46:32.809Z,3.70
2023-02-06T20:51:35.954Z,3.73
2023-02-06T20:56:39.676Z,4.73
2023-02-06T21:01:42.977Z,3.27
2023-02-06T21:06:48.087Z,5.07
2023-02-06T21:11:50.679Z,4.17
2023-02-06T21:16:53.277Z,5.60
2023-02-06T21:21:56.065Z,4.43
2023-02-06T21:26:58.525Z,3.53
2023-02-06T21:32:13.227Z,4.53
2023-02-06T21:37:16.454Z,4.13
2023-02-06T21:42:26.171Z,4.70
2023-02-06T21:47:28.706Z,3.40
2023-02-06T21:52:31.154Z,3.90
2023-02-06T21:57:33.639Z,5.37
2023-02-06T22:02:37.162Z,3.70
2023-02-06T22:07:39.613Z,3.57
2023-02-06T22:12:42.076Z,4.00
2023-02-06T22:17:44.578Z,3.20
2023-02-06T22:22:47.291Z,4.10
2023-02-06T22:27:49.998Z,4.10
2023-02-06T22:32:52.469Z,3.73
2023-02-06T22:37:54.953Z,3.60
2023-02-06T22:42:57.410Z,3.73
2023-02-06T22:47:59.879Z,4.37
2023-02-06T22:53:21.107Z,4.83
2023-02-06T22:58:23.507Z,4.50
2023-02-06T23:03:26.137Z,3.77
2023-02-06T23:08:29.114Z,4.67
2023-02-06T23:13:31.794Z,4.00
2023-02-06T23:18:34.682Z,4.77
2023-02-06T23:23:37.946Z,4.63
2023-02-06T23:28:52.468Z,5.97
2023-02-06T23:33:55.406Z,4.13
2023-02-06T23:39:00.871Z,4.50
2023-02-06T23:44:06.251Z,5.50
2023-02-06T23:49:09.202Z,4.57
2023-02-06T23:54:12.195Z,5.37
2023-02-06T23:59:14.698Z,4.80
